sensor_id;sensor_type;location;lat;lon;timestamp;temperature;humidity
75683;HTU21D;64295;44.772;39.872;2023-02-28T00:01:17;11.13;42.23
75683;HTU21D;64295;44.772;39.872;2023-02-28T00:03:42;11.10;42.36
75683;HTU21D;64295;44.772;39.872;2023-02-28T00:06:11;11.07;42.45
75683;HTU21D;64295;44.772;39.872;2023-02-28T00:08:38;11.02;42.61
75683;HTU21D;64295;44.772;39.872;2023-02-28T00:11:10;11.00;42.87
75683;HTU21D;64295;44.772;39.872;2023-02-28T00:13:39;10.99;42.90
75683;HTU21D;64295;44.772;39.872;2023-02-28T00:16:07;10.98;43.03
75683;HTU21D;64295;44.772;39.872;2023-02-28T00:18:34;10.95;43.14
75683;HTU21D;64295;44.772;39.872;2023-02-28T00:21:00;10.89;43.31
75683;HTU21D;64295;44.772;39.872;2023-02-28T00:23:27;10.87;43.45
75683;HTU21D;64295;44.772;39.872;2023-02-28T00:25:55;10.83;43.52
75683;HTU21D;64295;44.772;39.872;2023-02-28T00:28:22;10.78;43.61
75683;HTU21D;64295;44.772;39.872;2023-02-28T00:30:48;10.74;43.73
75683;HTU21D;64295;44.772;39.872;2023-02-28T00:33:14;10.69;43.82
75683;HTU21D;64295;44.772;39.872;2023-02-28T00:35:40;10.69;43.83
75683;HTU21D;64295;44.772;39.872;2023-02-28T00:38:08;10.67;43.82
75683;HTU21D;64295;44.772;39.872;2023-02-28T00:40:34;10.66;43.84
75683;HTU21D;64295;44.772;39.872;2023-02-28T00:43:00;10.65;43.89
75683;HTU21D;64295;44.772;39.872;2023-02-28T00:45:26;10.64;43.90
75683;HTU21D;64295;44.772;39.872;2023-02-28T00:47:52;10.63;43.97
75683;HTU21D;64295;44.772;39.872;2023-02-28T00:50:21;10.64;44.02
75683;HTU21D;64295;44.772;39.872;2023-02-28T00:52:47;10.60;44.03
75683;HTU21D;64295;44.772;39.872;2023-02-28T00:55:14;10.57;44.10
75683;HTU21D;64295;44.772;39.872;2023-02-28T00:57:40;10.53;44.20
75683;HTU21D;64295;44.772;39.872;2023-02-28T01:00:08;10.50;44.32
75683;HTU21D;64295;44.772;39.872;2023-02-28T01:02:34;10.50;44.35
75683;HTU21D;64295;44.772;39.872;2023-02-28T01:05:00;10.49;44.39
75683;HTU21D;64295;44.772;39.872;2023-02-28T01:07:29;10.49;44.44
75683;HTU21D;64295;44.772;39.872;2023-02-28T01:09:55;10.50;44.46
75683;HTU21D;64295;44.772;39.872;2023-02-28T01:12:20;10.53;44.45
75683;HTU21D;64295;44.772;39.872;2023-02-28T01:14:46;10.56;44.47
75683;HTU21D;64295;44.772;39.872;2023-02-28T01:17:12;10.58;44.50
75683;HTU21D;64295;44.772;39.872;2023-02-28T01:19:38;10.57;44.54
75683;HTU21D;64295;44.772;39.872;2023-02-28T01:22:05;10.56;44.59
75683;HTU21D;64295;44.772;39.872;2023-02-28T01:24:32;10.55;44.69
75683;HTU21D;64295;44.772;39.872;2023-02-28T01:26:58;10.51;44.73
75683;HTU21D;64295;44.772;39.872;2023-02-28T01:29:24;10.49;44.80
75683;HTU21D;64295;44.772;39.872;2023-02-28T01:31:52;10.50;44.86
75683;HTU21D;64295;44.772;39.872;2023-02-28T01:34:18;10.46;44.94
75683;HTU21D;64295;44.772;39.872;2023-02-28T01:36:45;10.44;45.00
75683;HTU21D;64295;44.772;39.872;2023-02-28T01:39:11;10.41;45.09
75683;HTU21D;64295;44.772;39.872;2023-02-28T01:41:38;10.40;45.12
75683;HTU21D;64295;44.772;39.872;2023-02-28T01:47:11;10.38;45.16
75683;HTU21D;64295;44.772;39.872;2023-02-28T01:49:38;10.37;45.23
75683;HTU21D;64295;44.772;39.872;2023-02-28T01:52:04;10.33;45.35
75683;HTU21D;64295;44.772;39.872;2023-02-28T01:54:31;10.30;45.45
75683;HTU21D;64295;44.772;39.872;2023-02-28T01:57:20;10.25;45.28
75683;HTU21D;64295;44.772;39.872;2023-02-28T01:59:52;10.16;45.35
75683;HTU21D;64295;44.772;39.872;2023-02-28T02:02:21;10.18;45.45
75683;HTU21D;64295;44.772;39.872;2023-02-28T02:05:00;10.16;45.64
75683;HTU21D;64295;44.772;39.872;2023-02-28T02:07:31;10.21;45.51
75683;HTU21D;64295;44.772;39.872;2023-02-28T02:10:11;10.24;45.59
75683;HTU21D;64295;44.772;39.872;2023-02-28T02:18:04;10.24;45.58
75683;HTU21D;64295;44.772;39.872;2023-02-28T02:26:47;10.16;45.75
75683;HTU21D;64295;44.772;39.872;2023-02-28T02:32:28;10.13;45.82
75683;HTU21D;64295;44.772;39.872;2023-02-28T02:34:58;10.11;45.70
75683;HTU21D;64295;44.772;39.872;2023-02-28T02:40:23;10.04;45.90
75683;HTU21D;64295;44.772;39.872;2023-02-28T02:43:09;9.98;46.12
75683;HTU21D;64295;44.772;39.872;2023-02-28T02:45:52;9.98;46.08
75683;HTU21D;64295;44.772;39.872;2023-02-28T02:48:24;9.96;46.00
75683;HTU21D;64295;44.772;39.872;2023-02-28T02:50:57;9.95;46.16
75683;HTU21D;64295;44.772;39.872;2023-02-28T02:53:32;9.95;46.25
75683;HTU21D;64295;44.772;39.872;2023-02-28T02:56:02;9.95;46.25
75683;HTU21D;64295;44.772;39.872;2023-02-28T02:58:35;9.98;46.29
75683;HTU21D;64295;44.772;39.872;2023-02-28T03:01:12;10.01;46.24
75683;HTU21D;64295;44.772;39.872;2023-02-28T03:03:40;10.00;46.26
75683;HTU21D;64295;44.772;39.872;2023-02-28T03:06:06;9.98;46.38
75683;HTU21D;64295;44.772;39.872;2023-02-28T03:08:37;9.98;46.53
75683;HTU21D;64295;44.772;39.872;2023-02-28T03:11:06;9.97;46.56
75683;HTU21D;64295;44.772;39.872;2023-02-28T03:16:34;9.91;46.66
75683;HTU21D;64295;44.772;39.872;2023-02-28T03:19:09;9.92;46.71
75683;HTU21D;64295;44.772;39.872;2023-02-28T03:24:33;9.98;46.80
75683;HTU21D;64295;44.772;39.872;2023-02-28T03:27:21;9.93;46.83
75683;HTU21D;64295;44.772;39.872;2023-02-28T03:32:40;9.90;47.02
75683;HTU21D;64295;44.772;39.872;2023-02-28T03:35:11;9.91;47.00
75683;HTU21D;64295;44.772;39.872;2023-02-28T03:37:42;9.89;47.05
75683;HTU21D;64295;44.772;39.872;2023-02-28T03:40:30;9.86;47.25
75683;HTU21D;64295;44.772;39.872;2023-02-28T03:43:03;9.86;47.20
75683;HTU21D;64295;44.772;39.872;2023-02-28T03:45:33;9.86;47.25
75683;HTU21D;64295;44.772;39.872;2023-02-28T03:50:42;9.85;47.38
75683;HTU21D;64295;44.772;39.872;2023-02-28T03:53:27;9.85;47.59
75683;HTU21D;64295;44.772;39.872;2023-02-28T03:55:59;9.88;47.48
75683;HTU21D;64295;44.772;39.872;2023-02-28T04:03:54;9.82;47.71
75683;HTU21D;64295;44.772;39.872;2023-02-28T04:06:24;9.82;47.77
75683;HTU21D;64295;44.772;39.872;2023-02-28T04:08:50;9.85;47.75
75683;HTU21D;64295;44.772;39.872;2023-02-28T04:11:44;9.85;47.88
75683;HTU21D;64295;44.772;39.872;2023-02-28T04:14:11;9.88;47.76
75683;HTU21D;64295;44.772;39.872;2023-02-28T04:16:40;9.88;47.79
75683;HTU21D;64295;44.772;39.872;2023-02-28T04:19:07;9.84;47.82
75683;HTU21D;64295;44.772;39.872;2023-02-28T04:21:36;9.86;47.89
75683;HTU21D;64295;44.772;39.872;2023-02-28T04:24:03;9.84;47.96
75683;HTU21D;64295;44.772;39.872;2023-02-28T04:26:34;9.85;48.09
75683;HTU21D;64295;44.772;39.872;2023-02-28T04:29:00;9.88;48.04
75683;HTU21D;64295;44.772;39.872;2023-02-28T04:31:26;9.93;48.06
75683;HTU21D;64295;44.772;39.872;2023-02-28T04:33:52;9.94;48.08
75683;HTU21D;64295;44.772;39.872;2023-02-28T04:36:18;9.96;48.09
75683;HTU21D;64295;44.772;39.872;2023-02-28T04:38:45;9.97;48.16
75683;HTU21D;64295;44.772;39.872;2023-02-28T04:41:12;10.03;48.16
75683;HTU21D;64295;44.772;39.872;2023-02-28T04:43:38;10.04;48.15
75683;HTU21D;64295;44.772;39.872;2023-02-28T04:46:05;10.03;48.16
75683;HTU21D;64295;44.772;39.872;2023-02-28T04:48:34;10.07;48.21
75683;HTU21D;64295;44.772;39.872;2023-02-28T04:51:08;10.10;48.54
75683;HTU21D;64295;44.772;39.872;2023-02-28T04:53:36;10.22;48.53
75683;HTU21D;64295;44.772;39.872;2023-02-28T04:56:02;10.24;48.44
75683;HTU21D;64295;44.772;39.872;2023-02-28T04:58:28;10.24;48.41
75683;HTU21D;64295;44.772;39.872;2023-02-28T05:01:21;10.21;48.51
75683;HTU21D;64295;44.772;39.872;2023-02-28T05:03:48;10.21;48.41
75683;HTU21D;64295;44.772;39.872;2023-02-28T05:06:15;10.21;48.44
75683;HTU21D;64295;44.772;39.872;2023-02-28T05:08:41;10.24;48.42
75683;HTU21D;64295;44.772;39.872;2023-02-28T05:11:14;10.28;48.44
75683;HTU21D;64295;44.772;39.872;2023-02-28T05:13:40;10.30;48.34
75683;HTU21D;64295;44.772;39.872;2023-02-28T05:16:06;10.34;48.28
75683;HTU21D;64295;44.772;39.872;2023-02-28T05:18:32;10.38;48.27
75683;HTU21D;64295;44.772;39.872;2023-02-28T05:20:58;10.45;48.19
75683;HTU21D;64295;44.772;39.872;2023-02-28T05:23:26;10.54;48.10
75683;HTU21D;64295;44.772;39.872;2023-02-28T05:25:53;10.65;48.02
75683;HTU21D;64295;44.772;39.872;2023-02-28T05:28:20;10.71;47.93
75683;HTU21D;64295;44.772;39.872;2023-02-28T05:30:46;10.79;47.85
75683;HTU21D;64295;44.772;39.872;2023-02-28T05:33:13;10.84;47.78
75683;HTU21D;64295;44.772;39.872;2023-02-28T05:35:40;10.92;47.74
75683;HTU21D;64295;44.772;39.872;2023-02-28T05:38:07;10.97;47.70
75683;HTU21D;64295;44.772;39.872;2023-02-28T05:40:33;11.07;47.63
75683;HTU21D;64295;44.772;39.872;2023-02-28T05:42:59;11.12;47.60
75683;HTU21D;64295;44.772;39.872;2023-02-28T05:45:25;11.19;47.58
75683;HTU21D;64295;44.772;39.872;2023-02-28T05:47:54;11.26;47.59
75683;HTU21D;64295;44.772;39.872;2023-02-28T05:50:21;11.36;47.52
75683;HTU21D;64295;44.772;39.872;2023-02-28T05:52:50;11.43;47.56
75683;HTU21D;64295;44.772;39.872;2023-02-28T05:55:16;11.54;47.44
75683;HTU21D;64295;44.772;39.872;2023-02-28T05:57:42;11.67;47.36
75683;HTU21D;64295;44.772;39.872;2023-02-28T06:00:09;11.79;47.76
75683;HTU21D;64295;44.772;39.872;2023-02-28T06:02:39;11.93;47.65
75683;HTU21D;64295;44.772;39.872;2023-02-28T06:05:12;12.06;47.39
75683;HTU21D;64295;44.772;39.872;2023-02-28T06:07:39;12.15;47.24
75683;HTU21D;64295;44.772;39.872;2023-02-28T06:10:05;12.20;47.16
75683;HTU21D;64295;44.772;39.872;2023-02-28T06:12:31;12.25;47.15
75683;HTU21D;64295;44.772;39.872;2023-02-28T06:15:00;12.30;47.05
75683;HTU21D;64295;44.772;39.872;2023-02-28T06:17:26;12.35;47.01
75683;HTU21D;64295;44.772;39.872;2023-02-28T06:19:52;12.42;46.96
75683;HTU21D;64295;44.772;39.872;2023-02-28T06:22:18;12.48;46.86
75683;HTU21D;64295;44.772;39.872;2023-02-28T06:24:44;12.57;46.75
75683;HTU21D;64295;44.772;39.872;2023-02-28T06:27:10;12.66;46.60
75683;HTU21D;64295;44.772;39.872;2023-02-28T06:29:35;12.76;46.44
75683;HTU21D;64295;44.772;39.872;2023-02-28T06:32:02;12.88;46.16
75683;HTU21D;64295;44.772;39.872;2023-02-28T06:34:28;13.01;45.88
75683;HTU21D;64295;44.772;39.872;2023-02-28T06:36:54;13.12;45.67
75683;HTU21D;64295;44.772;39.872;2023-02-28T06:39:20;13.24;45.48
75683;HTU21D;64295;44.772;39.872;2023-02-28T06:41:45;13.36;45.31
75683;HTU21D;64295;44.772;39.872;2023-02-28T06:44:15;13.46;44.99
75683;HTU21D;64295;44.772;39.872;2023-02-28T06:46:43;13.52;44.77
75683;HTU21D;64295;44.772;39.872;2023-02-28T06:49:10;13.59;44.60
75683;HTU21D;64295;44.772;39.872;2023-02-28T06:51:38;13.65;44.34
75683;HTU21D;64295;44.772;39.872;2023-02-28T06:54:05;13.74;44.06
75683;HTU21D;64295;44.772;39.872;2023-02-28T06:56:31;13.84;43.80
75683;HTU21D;64295;44.772;39.872;2023-02-28T06:58:57;13.94;44.16
75683;HTU21D;64295;44.772;39.872;2023-02-28T07:01:23;14.09;44.00
75683;HTU21D;64295;44.772;39.872;2023-02-28T07:03:50;14.29;43.72
75683;HTU21D;64295;44.772;39.872;2023-02-28T07:06:19;14.36;42.97
75683;HTU21D;64295;44.772;39.872;2023-02-28T07:08:45;14.36;42.88
75683;HTU21D;64295;44.772;39.872;2023-02-28T07:11:11;14.41;42.82
75683;HTU21D;64295;44.772;39.872;2023-02-28T07:13:37;14.44;42.46
75683;HTU21D;64295;44.772;39.872;2023-02-28T07:16:05;14.48;42.27
75683;HTU21D;64295;44.772;39.872;2023-02-28T07:18:31;14.48;42.19
75683;HTU21D;64295;44.772;39.872;2023-02-28T07:20:58;14.50;42.09
75683;HTU21D;64295;44.772;39.872;2023-02-28T07:23:23;14.56;42.05
75683;HTU21D;64295;44.772;39.872;2023-02-28T07:25:50;14.63;42.03
75683;HTU21D;64295;44.772;39.872;2023-02-28T07:28:16;14.67;42.00
75683;HTU21D;64295;44.772;39.872;2023-02-28T07:30:42;14.71;41.88
75683;HTU21D;64295;44.772;39.872;2023-02-28T07:33:10;14.74;41.82
75683;HTU21D;64295;44.772;39.872;2023-02-28T07:35:36;14.78;41.75
75683;HTU21D;64295;44.772;39.872;2023-02-28T07:38:02;14.81;41.75
75683;HTU21D;64295;44.772;39.872;2023-02-28T07:40:29;14.84;41.84
75683;HTU21D;64295;44.772;39.872;2023-02-28T07:42:55;14.91;41.87
75683;HTU21D;64295;44.772;39.872;2023-02-28T07:45:21;14.95;41.80
75683;HTU21D;64295;44.772;39.872;2023-02-28T07:47:47;14.99;41.78
75683;HTU21D;64295;44.772;39.872;2023-02-28T07:50:14;15.03;41.78
75683;HTU21D;64295;44.772;39.872;2023-02-28T07:52:41;15.10;41.80
75683;HTU21D;64295;44.772;39.872;2023-02-28T07:55:08;15.15;41.71
75683;HTU21D;64295;44.772;39.872;2023-02-28T07:57:34;15.19;41.33
75683;HTU21D;64295;44.772;39.872;2023-02-28T08:00:02;15.18;41.23
75683;HTU21D;64295;44.772;39.872;2023-02-28T08:02:37;15.22;41.19
75683;HTU21D;64295;44.772;39.872;2023-02-28T08:05:03;15.24;41.25
75683;HTU21D;64295;44.772;39.872;2023-02-28T08:07:29;15.29;40.94
75683;HTU21D;64295;44.772;39.872;2023-02-28T08:09:57;15.30;41.00
75683;HTU21D;64295;44.772;39.872;2023-02-28T08:12:23;15.39;41.07
75683;HTU21D;64295;44.772;39.872;2023-02-28T08:14:49;15.47;41.06
75683;HTU21D;64295;44.772;39.872;2023-02-28T08:17:15;15.57;40.94
75683;HTU21D;64295;44.772;39.872;2023-02-28T08:19:47;15.65;40.77
75683;HTU21D;64295;44.772;39.872;2023-02-28T08:22:12;15.69;40.80
75683;HTU21D;64295;44.772;39.872;2023-02-28T08:24:41;15.73;40.62
75683;HTU21D;64295;44.772;39.872;2023-02-28T08:27:08;15.76;40.44
75683;HTU21D;64295;44.772;39.872;2023-02-28T08:29:36;15.75;40.27
75683;HTU21D;64295;44.772;39.872;2023-02-28T08:32:02;15.81;40.08
75683;HTU21D;64295;44.772;39.872;2023-02-28T08:34:28;15.82;39.89
75683;HTU21D;64295;44.772;39.872;2023-02-28T08:36:54;15.84;39.46
75683;HTU21D;64295;44.772;39.872;2023-02-28T08:39:22;15.90;38.98
75683;HTU21D;64295;44.772;39.872;2023-02-28T08:41:48;15.96;38.88
75683;HTU21D;64295;44.772;39.872;2023-02-28T08:44:14;16.01;38.66
75683;HTU21D;64295;44.772;39.872;2023-02-28T08:46:40;16.04;38.40
75683;HTU21D;64295;44.772;39.872;2023-02-28T08:49:05;16.10;38.40
75683;HTU21D;64295;44.772;39.872;2023-02-28T08:51:32;16.16;37.75
75683;HTU21D;64295;44.772;39.872;2023-02-28T08:53:59;16.27;37.88
75683;HTU21D;64295;44.772;39.872;2023-02-28T08:56:27;16.31;37.79
75683;HTU21D;64295;44.772;39.872;2023-02-28T08:58:55;16.31;36.88
75683;HTU21D;64295;44.772;39.872;2023-02-28T09:01:27;16.27;37.11
75683;HTU21D;64295;44.772;39.872;2023-02-28T09:03:53;16.27;37.21
75683;HTU21D;64295;44.772;39.872;2023-02-28T09:06:22;16.27;36.40
75683;HTU21D;64295;44.772;39.872;2023-02-28T09:08:48;16.27;36.28
75683;HTU21D;64295;44.772;39.872;2023-02-28T09:11:15;16.26;36.50
75683;HTU21D;64295;44.772;39.872;2023-02-28T09:13:42;16.28;36.48
75683;HTU21D;64295;44.772;39.872;2023-02-28T09:16:10;16.34;36.21
75683;HTU21D;64295;44.772;39.872;2023-02-28T09:18:37;16.40;36.22
75683;HTU21D;64295;44.772;39.872;2023-02-28T09:21:09;16.43;36.18
75683;HTU21D;64295;44.772;39.872;2023-02-28T09:23:35;16.52;36.04
75683;HTU21D;64295;44.772;39.872;2023-02-28T09:26:04;16.62;35.95
75683;HTU21D;64295;44.772;39.872;2023-02-28T09:28:30;16.70;35.84
75683;HTU21D;64295;44.772;39.872;2023-02-28T09:30:56;16.85;35.92
75683;HTU21D;64295;44.772;39.872;2023-02-28T09:33:24;17.00;35.95
75683;HTU21D;64295;44.772;39.872;2023-02-28T09:35:58;17.05;35.96
75683;HTU21D;64295;44.772;39.872;2023-02-28T09:38:24;17.01;36.20
75683;HTU21D;64295;44.772;39.872;2023-02-28T09:40:55;16.98;36.41
75683;HTU21D;64295;44.772;39.872;2023-02-28T09:43:24;17.02;36.59
75683;HTU21D;64295;44.772;39.872;2023-02-28T09:47:13;17.01;36.79
75683;HTU21D;64295;44.772;39.872;2023-02-28T09:49:23;17.02;36.95
75683;HTU21D;64295;44.772;39.872;2023-02-28T09:52:03;16.98;37.05
75683;HTU21D;64295;44.772;39.872;2023-02-28T09:54:31;16.91;37.14
75683;HTU21D;64295;44.772;39.872;2023-02-28T09:57:19;16.89;37.29
75683;HTU21D;64295;44.772;39.872;2023-02-28T10:02:21;17.01;37.58
75683;HTU21D;64295;44.772;39.872;2023-02-28T10:05:14;17.06;37.62
75683;HTU21D;64295;44.772;39.872;2023-02-28T10:13:00;17.00;37.72
75683;HTU21D;64295;44.772;39.872;2023-02-28T10:15:30;16.98;37.94
75683;HTU21D;64295;44.772;39.872;2023-02-28T10:18:03;17.00;38.05
75683;HTU21D;64295;44.772;39.872;2023-02-28T10:20:33;16.99;38.02
75683;HTU21D;64295;44.772;39.872;2023-02-28T10:23:34;17.01;37.94
75683;HTU21D;64295;44.772;39.872;2023-02-28T10:26:12;17.07;37.85
75683;HTU21D;64295;44.772;39.872;2023-02-28T10:28:39;17.06;37.78
75683;HTU21D;64295;44.772;39.872;2023-02-28T10:31:13;17.02;37.62
75683;HTU21D;64295;44.772;39.872;2023-02-28T10:33:40;17.02;37.85
75683;HTU21D;64295;44.772;39.872;2023-02-28T10:36:08;17.05;37.82
75683;HTU21D;64295;44.772;39.872;2023-02-28T10:38:38;17.07;37.80
75683;HTU21D;64295;44.772;39.872;2023-02-28T10:41:06;17.13;37.75
75683;HTU21D;64295;44.772;39.872;2023-02-28T10:43:32;17.20;37.69
75683;HTU21D;64295;44.772;39.872;2023-02-28T10:46:10;17.22;37.74
75683;HTU21D;64295;44.772;39.872;2023-02-28T10:48:44;17.32;37.74
75683;HTU21D;64295;44.772;39.872;2023-02-28T10:51:14;17.34;37.80
75683;HTU21D;64295;44.772;39.872;2023-02-28T10:58:58;17.46;38.17
75683;HTU21D;64295;44.772;39.872;2023-02-28T11:03:56;17.66;37.97
75683;HTU21D;64295;44.772;39.872;2023-02-28T11:06:33;17.70;37.92
75683;HTU21D;64295;44.772;39.872;2023-02-28T11:09:03;17.77;37.94
75683;HTU21D;64295;44.772;39.872;2023-02-28T11:11:31;17.78;37.99
75683;HTU21D;64295;44.772;39.872;2023-02-28T11:16:44;17.78;38.68
75683;HTU21D;64295;44.772;39.872;2023-02-28T11:19:38;17.82;39.16
75683;HTU21D;64295;44.772;39.872;2023-02-28T11:22:04;17.78;39.24
75683;HTU21D;64295;44.772;39.872;2023-02-28T11:24:37;17.81;39.51
75683;HTU21D;64295;44.772;39.872;2023-02-28T11:28:22;17.82;39.70
75683;HTU21D;64295;44.772;39.872;2023-02-28T11:30:32;17.65;40.10
75683;HTU21D;64295;44.772;39.872;2023-02-28T11:32:59;17.40;40.72
75683;HTU21D;64295;44.772;39.872;2023-02-28T11:35:38;17.28;41.13
75683;HTU21D;64295;44.772;39.872;2023-02-28T11:38:12;17.25;41.38
75683;HTU21D;64295;44.772;39.872;2023-02-28T12:00:37;16.50;42.87
75683;HTU21D;64295;44.772;39.872;2023-02-28T12:06:01;16.43;43.70
75683;HTU21D;64295;44.772;39.872;2023-02-28T12:08:49;16.39;44.02
75683;HTU21D;64295;44.772;39.872;2023-02-28T12:22:31;16.34;44.27
75683;HTU21D;64295;44.772;39.872;2023-02-28T12:27:43;16.30;44.28
75683;HTU21D;64295;44.772;39.872;2023-02-28T12:30:22;16.13;44.48
75683;HTU21D;64295;44.772;39.872;2023-02-28T12:32:56;15.98;44.80
75683;HTU21D;64295;44.772;39.872;2023-02-28T12:35:54;15.89;45.13
75683;HTU21D;64295;44.772;39.872;2023-02-28T12:38:41;15.80;45.29
75683;HTU21D;64295;44.772;39.872;2023-02-28T12:41:17;15.71;45.50
75683;HTU21D;64295;44.772;39.872;2023-02-28T12:43:48;15.63;45.76
75683;HTU21D;64295;44.772;39.872;2023-02-28T12:46:24;15.61;46.10
75683;HTU21D;64295;44.772;39.872;2023-02-28T12:48:52;15.59;46.13
75683;HTU21D;64295;44.772;39.872;2023-02-28T12:51:19;15.57;45.97
75683;HTU21D;64295;44.772;39.872;2023-02-28T12:59:39;15.53;46.57
75683;HTU21D;64295;44.772;39.872;2023-02-28T13:02:59;15.38;46.98
75683;HTU21D;64295;44.772;39.872;2023-02-28T13:10:38;15.03;48.28
75683;HTU21D;64295;44.772;39.872;2023-02-28T13:13:05;14.99;48.26
75683;HTU21D;64295;44.772;39.872;2023-02-28T13:15:31;14.96;48.42
75683;HTU21D;64295;44.772;39.872;2023-02-28T13:18:00;14.93;48.60
75683;HTU21D;64295;44.772;39.872;2023-02-28T13:20:28;14.89;49.52
75683;HTU21D;64295;44.772;39.872;2023-02-28T13:22:58;14.77;49.46
75683;HTU21D;64295;44.772;39.872;2023-02-28T13:28:00;14.54;50.72
75683;HTU21D;64295;44.772;39.872;2023-02-28T13:36:08;14.32;51.24
75683;HTU21D;64295;44.772;39.872;2023-02-28T13:38:42;14.27;51.94
75683;HTU21D;64295;44.772;39.872;2023-02-28T13:44:21;14.11;52.20
75683;HTU21D;64295;44.772;39.872;2023-02-28T14:05:37;14.81;54.64
75683;HTU21D;64295;44.772;39.872;2023-02-28T14:08:20;15.48;53.42
75683;HTU21D;64295;44.772;39.872;2023-02-28T14:10:49;15.75;52.29
75683;HTU21D;64295;44.772;39.872;2023-02-28T14:13:46;15.32;52.78
75683;HTU21D;64295;44.772;39.872;2023-02-28T14:16:21;14.72;53.30
75683;HTU21D;64295;44.772;39.872;2023-02-28T14:18:51;14.44;53.82
75683;HTU21D;64295;44.772;39.872;2023-02-28T14:21:33;14.19;54.21
75683;HTU21D;64295;44.772;39.872;2023-02-28T14:26:58;13.89;54.52
75683;HTU21D;64295;44.772;39.872;2023-02-28T14:37:30;13.50;55.00
75683;HTU21D;64295;44.772;39.872;2023-02-28T14:39:59;13.46;55.11
75683;HTU21D;64295;44.772;39.872;2023-02-28T14:42:32;13.40;55.55
75683;HTU21D;64295;44.772;39.872;2023-02-28T14:44:58;13.34;55.46
75683;HTU21D;64295;44.772;39.872;2023-02-28T14:47:33;13.31;55.56
75683;HTU21D;64295;44.772;39.872;2023-02-28T14:50:02;13.29;55.49
75683;HTU21D;64295;44.772;39.872;2023-02-28T14:52:31;13.24;55.85
75683;HTU21D;64295;44.772;39.872;2023-02-28T14:55:06;13.16;56.60
75683;HTU21D;64295;44.772;39.872;2023-02-28T14:57:40;13.08;56.57
75683;HTU21D;64295;44.772;39.872;2023-02-28T15:00:20;12.99;57.25
75683;HTU21D;64295;44.772;39.872;2023-02-28T15:02:46;12.90;57.23
75683;HTU21D;64295;44.772;39.872;2023-02-28T15:07:38;12.82;57.55
75683;HTU21D;64295;44.772;39.872;2023-02-28T15:10:25;12.81;57.80
75683;HTU21D;64295;44.772;39.872;2023-02-28T15:13:02;12.78;57.96
75683;HTU21D;64295;44.772;39.872;2023-02-28T15:15:51;12.72;58.33
75683;HTU21D;64295;44.772;39.872;2023-02-28T15:18:49;12.61;59.03
75683;HTU21D;64295;44.772;39.872;2023-02-28T15:24:38;12.50;59.22
75683;HTU21D;64295;44.772;39.872;2023-02-28T15:26:54;12.44;59.35
75683;HTU21D;64295;44.772;39.872;2023-02-28T15:29:25;12.37;59.75
75683;HTU21D;64295;44.772;39.872;2023-02-28T15:32:04;12.32;59.70
75683;HTU21D;64295;44.772;39.872;2023-02-28T15:34:39;12.29;59.76
75683;HTU21D;64295;44.772;39.872;2023-02-28T15:39:57;12.38;59.38
75683;HTU21D;64295;44.772;39.872;2023-02-28T15:42:28;12.50;59.90
75683;HTU21D;64295;44.772;39.872;2023-02-28T15:44:55;12.48;59.42
75683;HTU21D;64295;44.772;39.872;2023-02-28T15:47:26;12.42;59.48
75683;HTU21D;64295;44.772;39.872;2023-02-28T15:50:01;12.34;59.72
75683;HTU21D;64295;44.772;39.872;2023-02-28T15:52:34;12.29;59.76
75683;HTU21D;64295;44.772;39.872;2023-02-28T15:55:26;12.22;60.12
75683;HTU21D;64295;44.772;39.872;2023-02-28T15:57:55;12.18;60.12
75683;HTU21D;64295;44.772;39.872;2023-02-28T16:00:26;12.05;60.70
75683;HTU21D;64295;44.772;39.872;2023-02-28T16:02:53;11.97;60.82
75683;HTU21D;64295;44.772;39.872;2023-02-28T16:05:27;11.90;60.73
75683;HTU21D;64295;44.772;39.872;2023-02-28T16:07:58;11.86;60.86
75683;HTU21D;64295;44.772;39.872;2023-02-28T16:10:26;11.79;61.29
75683;HTU21D;64295;44.772;39.872;2023-02-28T16:12:54;11.82;61.64
75683;HTU21D;64295;44.772;39.872;2023-02-28T16:15:27;11.77;61.83
75683;HTU21D;64295;44.772;39.872;2023-02-28T16:17:55;11.69;61.71
75683;HTU21D;64295;44.772;39.872;2023-02-28T16:20:25;11.63;61.83
75683;HTU21D;64295;44.772;39.872;2023-02-28T16:22:52;11.55;61.89
75683;HTU21D;64295;44.772;39.872;2023-02-28T16:25:21;11.54;61.70
75683;HTU21D;64295;44.772;39.872;2023-02-28T16:27:50;11.49;61.60
75683;HTU21D;64295;44.772;39.872;2023-02-28T16:30:24;11.47;61.57
75683;HTU21D;64295;44.772;39.872;2023-02-28T16:32:52;11.41;61.57
75683;HTU21D;64295;44.772;39.872;2023-02-28T16:35:20;11.31;61.66
75683;HTU21D;64295;44.772;39.872;2023-02-28T16:37:49;11.27;61.69
75683;HTU21D;64295;44.772;39.872;2023-02-28T16:40:21;11.23;62.00
75683;HTU21D;64295;44.772;39.872;2023-02-28T16:42:54;11.09;62.28
75683;HTU21D;64295;44.772;39.872;2023-02-28T16:45:23;10.96;62.28
75683;HTU21D;64295;44.772;39.872;2023-02-28T16:47:51;10.89;62.50
75683;HTU21D;64295;44.772;39.872;2023-02-28T16:50:22;10.85;62.53
75683;HTU21D;64295;44.772;39.872;2023-02-28T16:52:52;10.83;62.28
75683;HTU21D;64295;44.772;39.872;2023-02-28T16:55:18;10.78;62.23
75683;HTU21D;64295;44.772;39.872;2023-02-28T16:57:47;10.73;62.32
75683;HTU21D;64295;44.772;39.872;2023-02-28T17:00:16;10.66;62.23
75683;HTU21D;64295;44.772;39.872;2023-02-28T17:02:42;10.60;62.36
75683;HTU21D;64295;44.772;39.872;2023-02-28T17:05:10;10.58;62.30
75683;HTU21D;64295;44.772;39.872;2023-02-28T17:07:36;10.51;62.31
75683;HTU21D;64295;44.772;39.872;2023-02-28T17:10:20;10.41;62.50
75683;HTU21D;64295;44.772;39.872;2023-02-28T17:12:47;10.35;62.39
75683;HTU21D;64295;44.772;39.872;2023-02-28T17:15:15;10.28;62.37
75683;HTU21D;64295;44.772;39.872;2023-02-28T17:17:42;10.16;62.53
75683;HTU21D;64295;44.772;39.872;2023-02-28T17:20:13;10.03;62.88
75683;HTU21D;64295;44.772;39.872;2023-02-28T17:22:40;9.98;62.80
75683;HTU21D;64295;44.772;39.872;2023-02-28T17:25:08;9.92;62.89
75683;HTU21D;64295;44.772;39.872;2023-02-28T17:27:36;9.81;62.68
75683;HTU21D;64295;44.772;39.872;2023-02-28T17:30:18;9.77;62.61
75683;HTU21D;64295;44.772;39.872;2023-02-28T17:32:45;9.69;62.66
75683;HTU21D;64295;44.772;39.872;2023-02-28T17:35:11;9.70;62.70
75683;HTU21D;64295;44.772;39.872;2023-02-28T17:37:39;9.69;62.72
75683;HTU21D;64295;44.772;39.872;2023-02-28T17:40:16;9.66;62.84
75683;HTU21D;64295;44.772;39.872;2023-02-28T17:42:43;9.64;62.77
75683;HTU21D;64295;44.772;39.872;2023-02-28T17:45:12;9.60;62.82
75683;HTU21D;64295;44.772;39.872;2023-02-28T17:47:39;9.54;62.92
75683;HTU21D;64295;44.772;39.872;2023-02-28T17:50:14;9.42;63.31
75683;HTU21D;64295;44.772;39.872;2023-02-28T17:52:41;9.40;63.26
75683;HTU21D;64295;44.772;39.872;2023-02-28T17:55:09;9.45;63.18